createdAt,value
2023-02-04T00:01:40.304Z,0.70
2023-02-04T00:06:45.287Z,1.00
2023-02-04T00:11:48.933Z,0.90
2023-02-04T00:16:52.586Z,0.90
2023-02-04T00:21:57.814Z,1.00
2023-02-04T00:27:01.506Z,0.83
2023-02-04T00:32:05.573Z,0.83
2023-02-04T00:37:10.797Z,0.93
2023-02-04T00:42:15.008Z,0.80
2023-02-04T00:47:18.584Z,1.00
2023-02-04T00:52:23.691Z,0.90
2023-02-04T00:57:27.439Z,0.80
2023-02-04T01:02:31.116Z,1.00
2023-02-04T01:07:36.412Z,1.00
2023-02-04T01:12:40.029Z,0.83
2023-02-04T01:17:43.891Z,0.97
2023-02-04T01:22:48.899Z,0.77
2023-02-04T01:27:52.520Z,0.90
2023-02-04T01:32:56.051Z,0.73
2023-02-04T01:38:01.140Z,1.00
2023-02-04T01:43:06.791Z,0.70
2023-02-04T01:48:12.518Z,0.80
2023-02-04T01:53:21.563Z,1.43
2023-02-04T01:58:25.371Z,0.60
2023-02-04T02:03:29.347Z,0.80
2023-02-04T02:08:34.290Z,0.60
2023-02-04T02:13:37.885Z,1.00
2023-02-04T02:18:41.971Z,0.80
2023-02-04T02:23:50.549Z,0.90
2023-02-04T02:28:55.921Z,0.97
2023-02-04T02:33:59.497Z,0.70
2023-02-04T02:39:04.614Z,1.20
2023-02-04T02:44:08.636Z,0.80
2023-02-04T02:49:15.655Z,0.70
2023-02-04T02:54:24.219Z,0.60
2023-02-04T02:59:30.334Z,0.63
2023-02-04T03:04:38.396Z,0.60
2023-02-04T03:09:44.216Z,0.73
2023-02-04T03:14:47.919Z,0.80
2023-02-04T03:19:51.760Z,0.90
2023-02-04T03:24:58.428Z,0.80
2023-02-04T03:30:02.219Z,0.70
2023-02-04T03:35:06.890Z,0.90
2023-02-04T03:40:13.219Z,0.70
2023-02-04T03:45:17.009Z,0.83
2023-02-04T03:50:20.610Z,0.90
2023-02-04T03:55:26.808Z,0.70
2023-02-04T04:00:32.346Z,0.70
2023-02-04T04:05:36.107Z,0.93
2023-02-04T04:10:42.025Z,0.90
2023-02-04T04:15:45.860Z,1.00
2023-02-04T04:20:49.458Z,0.87
2023-02-04T04:25:54.461Z,0.73
2023-02-04T04:30:58.185Z,1.00
2023-02-04T04:36:01.820Z,0.83
2023-02-04T04:41:06.813Z,0.97
2023-02-04T04:46:10.335Z,0.60
2023-02-04T04:51:13.909Z,0.97
2023-02-04T04:56:19.138Z,0.73
2023-02-04T05:01:22.886Z,1.23
2023-02-04T05:06:26.657Z,0.63
2023-02-04T05:11:31.690Z,0.67
2023-02-04T05:16:35.242Z,0.50
2023-02-04T05:21:38.813Z,0.60
2023-02-04T05:26:43.780Z,0.90
2023-02-04T05:31:47.436Z,0.80
2023-02-04T05:36:50.983Z,0.67
2023-02-04T05:41:55.926Z,0.63
2023-02-04T05:46:59.476Z,0.70
2023-02-04T05:52:03.077Z,0.77
2023-02-04T05:57:08.139Z,1.10
2023-02-04T06:02:11.755Z,0.80
2023-02-04T06:07:15.340Z,1.07
2023-02-04T06:12:20.808Z,0.80
2023-02-04T06:17:24.452Z,0.80
2023-02-04T06:22:27.996Z,1.13
2023-02-04T06:27:32.898Z,1.27
2023-02-04T06:32:36.519Z,1.10
2023-02-04T06:37:40.158Z,0.80
2023-02-04T06:42:45.153Z,1.17
2023-02-04T06:47:48.713Z,1.00
2023-02-04T06:52:52.832Z,0.80
2023-02-04T06:57:58.271Z,0.90
2023-02-04T07:03:01.911Z,0.60
2023-02-04T07:08:06.088Z,0.70
2023-02-04T07:13:11.027Z,0.70
2023-02-04T07:18:18.126Z,0.70
2023-02-04T07:23:21.653Z,0.70
2023-02-04T07:28:27.372Z,1.00
2023-02-04T07:33:30.948Z,0.80
2023-02-04T07:38:34.647Z,1.10
2023-02-04T07:43:39.564Z,0.80
2023-02-04T07:48:43.490Z,0.87
2023-02-04T07:53:47.028Z,0.70
2023-02-04T07:58:52.029Z,1.20
2023-02-04T08:03:56.008Z,0.90
2023-02-04T08:08:59.479Z,0.90
2023-02-04T08:14:04.672Z,0.90
2023-02-04T08:19:08.253Z,0.90
2023-02-04T08:24:11.901Z,0.80
2023-02-04T08:29:16.845Z,0.80
2023-02-04T08:34:20.511Z,0.90
2023-02-04T08:39:24.092Z,0.90
2023-02-04T08:44:28.978Z,0.87
2023-02-04T08:49:32.633Z,0.93
2023-02-04T08:54:36.835Z,1.00
2023-02-04T08:59:41.929Z,0.87
2023-02-04T09:04:45.478Z,0.90
2023-02-04T09:09:49.326Z,1.10
2023-02-04T09:14:54.884Z,1.47
2023-02-04T09:19:58.435Z,1.37
2023-02-04T09:25:02.342Z,1.43
2023-02-04T09:30:08.241Z,1.40
2023-02-04T09:35:11.791Z,1.50
2023-02-04T09:40:17.089Z,1.70
2023-02-04T09:45:24.527Z,1.47
2023-02-04T09:50:32.140Z,1.70
2023-02-04T09:55:39.150Z,1.70
2023-02-04T10:00:44.597Z,1.97
2023-02-04T10:05:49.126Z,2.27
2023-02-04T10:10:52.811Z,1.70
2023-02-04T10:15:58.045Z,1.60
2023-02-04T10:21:13.931Z,1.90
2023-02-04T10:26:18.689Z,1.83
2023-02-04T10:31:36.051Z,1.97
2023-02-04T10:36:40.333Z,1.50
2023-02-04T10:41:51.153Z,1.70
2023-02-04T10:47:02.305Z,1.90
2023-02-04T10:52:17.259Z,2.30
2023-02-04T10:57:23.660Z,1.90
2023-02-04T11:02:41.793Z,1.43
2023-02-04T11:07:46.494Z,1.40
2023-02-04T11:13:02.297Z,2.00
2023-02-04T11:18:09.024Z,1.93
2023-02-04T11:23:33.237Z,1.67
2023-02-04T11:28:52.171Z,2.00
2023-02-04T11:34:11.688Z,1.37
2023-02-04T11:39:18.646Z,1.47
2023-02-04T11:44:23.069Z,1.37
2023-02-04T11:49:28.713Z,1.97
2023-02-04T11:54:32.244Z,1.30
2023-02-04T11:59:35.825Z,1.27
2023-02-04T12:04:40.834Z,1.17
2023-02-04T12:09:50.342Z,1.20
2023-02-04T12:15:04.869Z,1.20
2023-02-04T12:20:11.162Z,1.00
2023-02-04T12:25:17.069Z,1.20
2023-02-04T12:30:21.089Z,1.47
2023-02-04T12:35:26.019Z,1.63
2023-02-04T12:40:29.843Z,1.53
2023-02-04T12:45:33.924Z,1.53
2023-02-04T12:50:39.683Z,1.63
2023-02-04T12:55:43.274Z,1.70
2023-02-04T13:00:46.878Z,1.30
2023-02-04T13:05:51.921Z,1.50
2023-02-04T13:10:55.536Z,1.70
2023-02-04T13:15:59.170Z,1.53
2023-02-04T13:21:04.175Z,1.30
2023-02-04T13:26:08.859Z,1.50
2023-02-04T13:31:13.348Z,1.70
2023-02-04T13:36:18.384Z,1.40
2023-02-04T13:41:22.006Z,1.70
2023-02-04T13:46:25.877Z,2.00
2023-02-04T13:51:31.185Z,1.70
2023-02-04T13:56:35.009Z,1.50
2023-02-04T14:01:39.028Z,1.77
2023-02-04T14:06:44.381Z,1.70
2023-02-04T14:11:49.332Z,1.50
2023-02-04T14:16:53.018Z,1.67
2023-02-04T14:21:58.524Z,1.20
2023-02-04T14:27:07.207Z,1.20
2023-02-04T14:32:10.847Z,1.20
2023-02-04T14:37:15.894Z,1.30
2023-02-04T14:42:19.491Z,1.60
2023-02-04T14:47:23.130Z,1.10
2023-02-04T14:52:28.171Z,0.93
2023-02-04T14:57:32.010Z,1.40
2023-02-04T15:02:35.645Z,1.33
2023-02-04T15:07:40.720Z,1.47
2023-02-04T15:12:44.331Z,1.60
2023-02-04T15:17:48.209Z,1.60
2023-02-04T15:22:56.211Z,1.50
2023-02-04T15:27:59.888Z,1.40
2023-02-04T15:33:03.512Z,1.27
2023-02-04T15:38:08.912Z,1.57
2023-02-04T15:43:12.537Z,1.30
2023-02-04T15:48:16.576Z,1.40
2023-02-04T15:53:21.782Z,1.30
2023-02-04T15:58:25.354Z,1.40
2023-02-04T16:03:28.956Z,1.27
2023-02-04T16:08:34.168Z,1.30
2023-02-04T16:13:38.053Z,1.47
2023-02-04T16:18:41.635Z,1.47
2023-02-04T16:23:47.178Z,0.97
2023-02-04T16:28:50.756Z,1.33
2023-02-04T16:33:54.351Z,1.30
2023-02-04T16:39:00.166Z,1.50
2023-02-04T16:44:03.896Z,1.27
2023-02-04T16:49:07.444Z,1.37
2023-02-04T16:54:12.415Z,1.10
2023-02-04T16:59:16.398Z,1.40
2023-02-04T17:04:20.049Z,1.30
2023-02-04T17:09:25.065Z,1.60
2023-02-04T17:14:28.897Z,1.53
2023-02-04T17:19:32.394Z,1.20
2023-02-04T17:24:43.414Z,1.50
2023-02-04T17:29:46.999Z,1.67
2023-02-04T17:34:54.192Z,1.57
2023-02-04T17:39:59.212Z,1.17
2023-02-04T17:45:02.814Z,1.37
2023-02-04T17:50:08.040Z,1.27
2023-02-04T17:55:20.299Z,1.90
2023-02-04T18:00:26.069Z,1.70
2023-02-04T18:05:30.680Z,1.47
2023-02-04T18:10:39.309Z,1.50
2023-02-04T18:15:47.180Z,1.40
2023-02-04T18:20:58.781Z,1.50
2023-02-04T18:26:14.665Z,1.40
2023-02-04T18:31:34.932Z,1.47
2023-02-04T18:36:38.921Z,1.73
2023-02-04T18:41:45.609Z,2.30
2023-02-04T18:46:49.381Z,2.03
2023-02-04T18:51:53.465Z,2.40
2023-02-04T18:57:17.311Z,2.50
2023-02-04T19:02:36.485Z,2.47
2023-02-04T19:07:40.180Z,2.33
2023-02-04T19:12:45.258Z,2.40
2023-02-04T19:17:48.958Z,2.23
2023-02-04T19:22:54.756Z,1.70
2023-02-04T19:28:02.004Z,2.27
2023-02-04T19:33:17.172Z,2.60
2023-02-04T19:38:40.546Z,3.23
2023-02-04T19:43:45.571Z,3.20
2023-02-04T19:48:49.306Z,3.70
2023-02-04T19:53:59.124Z,4.10
2023-02-04T19:59:23.407Z,4.07
2023-02-04T20:04:30.461Z,2.90
2023-02-04T20:09:35.692Z,3.00
2023-02-04T20:14:52.402Z,3.17
2023-02-04T20:19:56.860Z,3.53
2023-02-04T20:25:22.697Z,3.43
2023-02-04T20:30:30.570Z,2.70
2023-02-04T20:36:19.778Z,3.07
2023-02-04T20:41:23.913Z,3.90
2023-02-04T20:46:29.003Z,3.03
2023-02-04T20:51:35.802Z,3.37
2023-02-04T20:56:40.971Z,3.70
2023-02-04T21:01:48.516Z,3.57
2023-02-04T21:06:54.045Z,3.90
2023-02-04T21:11:58.912Z,4.30
2023-02-04T21:17:04.283Z,4.20
2023-02-04T21:22:07.937Z,5.83
2023-02-04T21:27:11.596Z,4.40
2023-02-04T21:32:16.845Z,4.50
2023-02-04T21:37:20.442Z,5.10
2023-02-04T21:42:24.102Z,4.30
2023-02-04T21:47:29.346Z,5.33
2023-02-04T21:52:32.992Z,6.03
2023-02-04T21:57:36.865Z,5.97
2023-02-04T22:02:42.035Z,5.20
2023-02-04T22:07:46.058Z,3.40
2023-02-04T22:12:49.776Z,4.57
2023-02-04T22:17:55.085Z,3.80
2023-02-04T22:22:59.115Z,5.00
2023-02-04T22:28:02.726Z,4.60
2023-02-04T22:33:07.738Z,5.63
2023-02-04T22:38:11.290Z,3.60
2023-02-04T22:43:15.235Z,3.87
2023-02-04T22:48:20.322Z,4.33
2023-02-04T22:53:23.952Z,4.00
2023-02-04T22:58:27.533Z,3.23
2023-02-04T23:03:32.480Z,3.60
2023-02-04T23:08:36.394Z,3.70
2023-02-04T23:13:40.040Z,3.43
2023-02-04T23:18:45.025Z,3.60
2023-02-04T23:23:48.980Z,3.17
2023-02-04T23:28:52.580Z,3.17
2023-02-04T23:33:57.508Z,4.60
2023-02-04T23:39:01.106Z,3.93
2023-02-04T23:44:04.822Z,3.53
2023-02-04T23:49:10.776Z,3.83
2023-02-04T23:54:14.440Z,3.10
2023-02-04T23:59:18.782Z,3.20
